sensor_id;sensor_type;location;lat;lon;timestamp;temperature;humidity
13488;DHT22;6816;48.506;9.050;2022-09-17T00:00:32;12.00;99.90
13488;DHT22;6816;48.506;9.050;2022-09-17T00:03:34;11.90;99.90
13488;DHT22;6816;48.506;9.050;2022-09-17T00:06:35;12.00;99.90
13488;DHT22;6816;48.506;9.050;2022-09-17T00:09:36;11.90;99.90
13488;DHT22;6816;48.506;9.050;2022-09-17T00:12:36;11.90;99.90
13488;DHT22;6816;48.506;9.050;2022-09-17T00:15:44;11.90;99.90
13488;DHT22;6816;48.506;9.050;2022-09-17T00:18:45;11.90;99.90
13488;DHT22;6816;48.506;9.050;2022-09-17T00:21:46;11.80;99.90
13488;DHT22;6816;48.506;9.050;2022-09-17T00:24:47;11.90;99.90
13488;DHT22;6816;48.506;9.050;2022-09-17T00:27:47;11.80;99.90
13488;DHT22;6816;48.506;9.050;2022-09-17T00:30:48;11.80;99.90
13488;DHT22;6816;48.506;9.050;2022-09-17T00:33:49;11.90;99.90
13488;DHT22;6816;48.506;9.050;2022-09-17T00:36:50;11.90;99.90
13488;DHT22;6816;48.506;9.050;2022-09-17T00:39:50;11.90;99.90
13488;DHT22;6816;48.506;9.050;2022-09-17T00:42:51;11.90;99.90
13488;DHT22;6816;48.506;9.050;2022-09-17T00:45:52;12.10;99.90
13488;DHT22;6816;48.506;9.050;2022-09-17T00:48:54;12.00;99.90
13488;DHT22;6816;48.506;9.050;2022-09-17T00:52:08;12.10;99.90
13488;DHT22;6816;48.506;9.050;2022-09-17T00:58:32;12.10;99.90
13488;DHT22;6816;48.506;9.050;2022-09-17T01:01:35;12.20;99.90
13488;DHT22;6816;48.506;9.050;2022-09-17T01:04:35;12.20;99.90
13488;DHT22;6816;48.506;9.050;2022-09-17T01:08:04;12.20;99.90
13488;DHT22;6816;48.506;9.050;2022-09-17T01:14:51;12.30;99.90
13488;DHT22;6816;48.506;9.050;2022-09-17T01:21:26;12.40;99.90
13488;DHT22;6816;48.506;9.050;2022-09-17T01:24:49;12.40;99.90
13488;DHT22;6816;48.506;9.050;2022-09-17T01:28:09;12.40;99.90
13488;DHT22;6816;48.506;9.050;2022-09-17T01:31:17;12.50;99.90
13488;DHT22;6816;48.506;9.050;2022-09-17T01:34:43;12.50;99.90
13488;DHT22;6816;48.506;9.050;2022-09-17T01:40:58;12.50;99.90
13488;DHT22;6816;48.506;9.050;2022-09-17T01:44:13;12.50;99.90
13488;DHT22;6816;48.506;9.050;2022-09-17T01:47:35;12.60;99.90
13488;DHT22;6816;48.506;9.050;2022-09-17T01:50:41;12.60;99.90
13488;DHT22;6816;48.506;9.050;2022-09-17T01:53:56;12.60;99.90
13488;DHT22;6816;48.506;9.050;2022-09-17T01:57:07;12.60;99.90
13488;DHT22;6816;48.506;9.050;2022-09-17T02:00:11;12.60;99.90
13488;DHT22;6816;48.506;9.050;2022-09-17T02:03:22;12.70;99.90
13488;DHT22;6816;48.506;9.050;2022-09-17T02:06:29;12.70;99.90
13488;DHT22;6816;48.506;9.050;2022-09-17T02:09:42;12.60;99.90
13488;DHT22;6816;48.506;9.050;2022-09-17T02:12:51;12.60;99.90
13488;DHT22;6816;48.506;9.050;2022-09-17T02:16:01;12.60;99.90
13488;DHT22;6816;48.506;9.050;2022-09-17T02:19:15;12.60;99.90
13488;DHT22;6816;48.506;9.050;2022-09-17T02:22:27;12.60;99.90
13488;DHT22;6816;48.506;9.050;2022-09-17T02:25:48;12.50;99.90
13488;DHT22;6816;48.506;9.050;2022-09-17T02:28:54;12.50;99.90
13488;DHT22;6816;48.506;9.050;2022-09-17T02:31:56;12.50;99.90
13488;DHT22;6816;48.506;9.050;2022-09-17T02:34:57;12.40;99.90
13488;DHT22;6816;48.506;9.050;2022-09-17T02:37:58;12.30;99.90
13488;DHT22;6816;48.506;9.050;2022-09-17T02:41:14;12.30;99.90
13488;DHT22;6816;48.506;9.050;2022-09-17T02:54:47;12.20;99.90
13488;DHT22;6816;48.506;9.050;2022-09-17T02:57:56;12.20;99.90
13488;DHT22;6816;48.506;9.050;2022-09-17T03:01:05;12.20;99.90
13488;DHT22;6816;48.506;9.050;2022-09-17T03:04:09;12.20;99.90
13488;DHT22;6816;48.506;9.050;2022-09-17T03:07:12;12.10;99.90
13488;DHT22;6816;48.506;9.050;2022-09-17T03:10:13;12.10;99.90
13488;DHT22;6816;48.506;9.050;2022-09-17T03:13:15;12.10;99.90
13488;DHT22;6816;48.506;9.050;2022-09-17T03:16:15;12.10;99.90
13488;DHT22;6816;48.506;9.050;2022-09-17T03:19:16;12.10;99.90
13488;DHT22;6816;48.506;9.050;2022-09-17T03:22:16;12.10;99.90
13488;DHT22;6816;48.506;9.050;2022-09-17T03:25:17;12.10;99.90
13488;DHT22;6816;48.506;9.050;2022-09-17T03:28:18;12.10;99.90
13488;DHT22;6816;48.506;9.050;2022-09-17T03:31:18;12.00;99.90
13488;DHT22;6816;48.506;9.050;2022-09-17T03:34:19;12.10;99.90
13488;DHT22;6816;48.506;9.050;2022-09-17T03:37:20;12.10;99.90
13488;DHT22;6816;48.506;9.050;2022-09-17T03:40:21;12.10;99.90
13488;DHT22;6816;48.506;9.050;2022-09-17T03:43:21;12.00;99.90
13488;DHT22;6816;48.506;9.050;2022-09-17T03:46:22;11.90;99.90
13488;DHT22;6816;48.506;9.050;2022-09-17T03:49:23;11.90;99.90
13488;DHT22;6816;48.506;9.050;2022-09-17T03:52:23;11.80;99.90
13488;DHT22;6816;48.506;9.050;2022-09-17T03:55:24;11.80;99.90
13488;DHT22;6816;48.506;9.050;2022-09-17T03:58:25;11.70;99.90
13488;DHT22;6816;48.506;9.050;2022-09-17T04:01:26;11.70;99.90
13488;DHT22;6816;48.506;9.050;2022-09-17T04:04:27;11.70;99.90
13488;DHT22;6816;48.506;9.050;2022-09-17T04:07:28;11.70;99.90
13488;DHT22;6816;48.506;9.050;2022-09-17T04:10:28;11.60;99.90
13488;DHT22;6816;48.506;9.050;2022-09-17T04:13:29;11.50;99.90
13488;DHT22;6816;48.506;9.050;2022-09-17T04:16:29;11.50;99.90
13488;DHT22;6816;48.506;9.050;2022-09-17T04:19:30;11.50;99.90
13488;DHT22;6816;48.506;9.050;2022-09-17T04:22:31;11.50;99.90
13488;DHT22;6816;48.506;9.050;2022-09-17T04:25:32;11.50;99.90
13488;DHT22;6816;48.506;9.050;2022-09-17T04:28:33;11.50;99.90
13488;DHT22;6816;48.506;9.050;2022-09-17T04:31:33;11.50;99.90
13488;DHT22;6816;48.506;9.050;2022-09-17T04:34:34;11.50;99.90
13488;DHT22;6816;48.506;9.050;2022-09-17T04:37:34;11.50;99.90
13488;DHT22;6816;48.506;9.050;2022-09-17T04:40:35;11.50;99.90
13488;DHT22;6816;48.506;9.050;2022-09-17T04:43:36;11.50;99.90
13488;DHT22;6816;48.506;9.050;2022-09-17T04:46:36;11.50;99.90
13488;DHT22;6816;48.506;9.050;2022-09-17T04:49:37;11.70;99.90
13488;DHT22;6816;48.506;9.050;2022-09-17T04:52:41;11.60;99.90
13488;DHT22;6816;48.506;9.050;2022-09-17T04:55:42;11.60;99.90
13488;DHT22;6816;48.506;9.050;2022-09-17T04:58:43;11.60;99.90
13488;DHT22;6816;48.506;9.050;2022-09-17T05:01:43;11.60;99.90
13488;DHT22;6816;48.506;9.050;2022-09-17T05:04:44;11.60;99.90
13488;DHT22;6816;48.506;9.050;2022-09-17T05:07:45;11.70;99.90
13488;DHT22;6816;48.506;9.050;2022-09-17T05:10:45;11.70;99.90
13488;DHT22;6816;48.506;9.050;2022-09-17T05:13:47;11.60;99.90
13488;DHT22;6816;48.506;9.050;2022-09-17T05:16:47;11.50;99.90
13488;DHT22;6816;48.506;9.050;2022-09-17T05:19:48;11.50;99.90
13488;DHT22;6816;48.506;9.050;2022-09-17T05:22:50;11.50;99.90
13488;DHT22;6816;48.506;9.050;2022-09-17T05:25:51;11.40;99.90
13488;DHT22;6816;48.506;9.050;2022-09-17T05:28:52;11.40;99.90
13488;DHT22;6816;48.506;9.050;2022-09-17T05:31:53;11.40;99.90
13488;DHT22;6816;48.506;9.050;2022-09-17T05:34:53;11.30;99.90
13488;DHT22;6816;48.506;9.050;2022-09-17T05:37:57;11.30;99.90
13488;DHT22;6816;48.506;9.050;2022-09-17T05:40:58;11.30;99.90
13488;DHT22;6816;48.506;9.050;2022-09-17T05:44:02;11.30;99.90
13488;DHT22;6816;48.506;9.050;2022-09-17T05:47:03;11.30;99.90
13488;DHT22;6816;48.506;9.050;2022-09-17T05:50:04;11.30;99.90
13488;DHT22;6816;48.506;9.050;2022-09-17T05:53:07;11.40;99.90
13488;DHT22;6816;48.506;9.050;2022-09-17T05:56:09;11.40;99.90
13488;DHT22;6816;48.506;9.050;2022-09-17T05:59:10;11.50;99.90
13488;DHT22;6816;48.506;9.050;2022-09-17T06:02:13;11.50;99.90
13488;DHT22;6816;48.506;9.050;2022-09-17T06:05:13;11.50;99.90
13488;DHT22;6816;48.506;9.050;2022-09-17T06:08:14;11.60;99.90
13488;DHT22;6816;48.506;9.050;2022-09-17T06:11:15;11.60;99.90
13488;DHT22;6816;48.506;9.050;2022-09-17T06:14:15;11.70;99.90
13488;DHT22;6816;48.506;9.050;2022-09-17T06:17:16;11.80;99.90
13488;DHT22;6816;48.506;9.050;2022-09-17T06:20:17;11.80;99.90
13488;DHT22;6816;48.506;9.050;2022-09-17T06:23:18;11.90;99.90
13488;DHT22;6816;48.506;9.050;2022-09-17T06:26:18;11.90;99.90
13488;DHT22;6816;48.506;9.050;2022-09-17T06:29:19;11.90;99.90
13488;DHT22;6816;48.506;9.050;2022-09-17T06:32:20;12.00;99.90
13488;DHT22;6816;48.506;9.050;2022-09-17T06:35:21;12.00;99.90
13488;DHT22;6816;48.506;9.050;2022-09-17T06:38:21;12.00;99.90
13488;DHT22;6816;48.506;9.050;2022-09-17T06:41:22;12.20;99.90
13488;DHT22;6816;48.506;9.050;2022-09-17T06:44:22;12.30;99.90
13488;DHT22;6816;48.506;9.050;2022-09-17T06:47:24;12.30;99.90
13488;DHT22;6816;48.506;9.050;2022-09-17T06:50:24;12.40;99.90
13488;DHT22;6816;48.506;9.050;2022-09-17T06:53:25;12.50;99.90
13488;DHT22;6816;48.506;9.050;2022-09-17T06:56:25;12.60;99.90
13488;DHT22;6816;48.506;9.050;2022-09-17T06:59:26;12.80;99.90
13488;DHT22;6816;48.506;9.050;2022-09-17T07:02:27;12.90;99.90
13488;DHT22;6816;48.506;9.050;2022-09-17T07:05:29;12.90;99.90
13488;DHT22;6816;48.506;9.050;2022-09-17T07:08:32;13.00;99.90
13488;DHT22;6816;48.506;9.050;2022-09-17T07:11:36;13.00;99.90
13488;DHT22;6816;48.506;9.050;2022-09-17T07:14:36;13.10;99.90
13488;DHT22;6816;48.506;9.050;2022-09-17T07:17:38;13.00;99.90
13488;DHT22;6816;48.506;9.050;2022-09-17T07:20:39;13.00;99.90
13488;DHT22;6816;48.506;9.050;2022-09-17T07:23:40;13.00;99.90
13488;DHT22;6816;48.506;9.050;2022-09-17T07:26:41;13.00;99.90
13488;DHT22;6816;48.506;9.050;2022-09-17T07:29:42;13.00;99.90
13488;DHT22;6816;48.506;9.050;2022-09-17T07:32:42;13.00;99.90
13488;DHT22;6816;48.506;9.050;2022-09-17T07:35:54;13.20;99.90
13488;DHT22;6816;48.506;9.050;2022-09-17T07:38:55;13.10;99.90
13488;DHT22;6816;48.506;9.050;2022-09-17T07:41:56;13.20;99.90
13488;DHT22;6816;48.506;9.050;2022-09-17T07:44:56;13.20;99.90
13488;DHT22;6816;48.506;9.050;2022-09-17T07:47:57;13.20;99.90
13488;DHT22;6816;48.506;9.050;2022-09-17T07:50:58;13.10;99.90
13488;DHT22;6816;48.506;9.050;2022-09-17T07:53:58;13.10;99.90
13488;DHT22;6816;48.506;9.050;2022-09-17T07:56:59;13.10;99.90
13488;DHT22;6816;48.506;9.050;2022-09-17T08:00:00;13.10;99.90
13488;DHT22;6816;48.506;9.050;2022-09-17T08:03:01;13.10;99.90
13488;DHT22;6816;48.506;9.050;2022-09-17T08:06:10;13.10;99.90
13488;DHT22;6816;48.506;9.050;2022-09-17T08:09:10;13.10;99.90
13488;DHT22;6816;48.506;9.050;2022-09-17T08:12:12;13.10;99.90
13488;DHT22;6816;48.506;9.050;2022-09-17T08:15:12;13.20;99.90
13488;DHT22;6816;48.506;9.050;2022-09-17T08:18:15;13.20;99.90
13488;DHT22;6816;48.506;9.050;2022-09-17T08:21:16;13.20;99.90
13488;DHT22;6816;48.506;9.050;2022-09-17T08:24:21;13.20;99.90
13488;DHT22;6816;48.506;9.050;2022-09-17T08:27:21;13.20;99.90
13488;DHT22;6816;48.506;9.050;2022-09-17T08:30:22;13.20;99.90
13488;DHT22;6816;48.506;9.050;2022-09-17T08:33:23;13.20;99.90
13488;DHT22;6816;48.506;9.050;2022-09-17T08:36:24;13.30;99.90
13488;DHT22;6816;48.506;9.050;2022-09-17T08:39:25;13.40;99.90
13488;DHT22;6816;48.506;9.050;2022-09-17T08:42:45;13.50;99.90
13488;DHT22;6816;48.506;9.050;2022-09-17T08:45:53;13.60;99.90
13488;DHT22;6816;48.506;9.050;2022-09-17T08:59:15;14.00;99.90
13488;DHT22;6816;48.506;9.050;2022-09-17T09:02:22;14.10;99.90
13488;DHT22;6816;48.506;9.050;2022-09-17T09:11:41;14.00;99.90
13488;DHT22;6816;48.506;9.050;2022-09-17T09:17:50;14.00;99.90
13488;DHT22;6816;48.506;9.050;2022-09-17T09:24:04;13.90;99.90
13488;DHT22;6816;48.506;9.050;2022-09-17T09:27:19;14.00;99.90
13488;DHT22;6816;48.506;9.050;2022-09-17T09:30:21;14.00;99.90
13488;DHT22;6816;48.506;9.050;2022-09-17T09:33:30;14.10;99.90
13488;DHT22;6816;48.506;9.050;2022-09-17T09:36:32;14.20;99.90
13488;DHT22;6816;48.506;9.050;2022-09-17T09:39:34;14.30;99.90
13488;DHT22;6816;48.506;9.050;2022-09-17T09:42:37;14.30;99.90
13488;DHT22;6816;48.506;9.050;2022-09-17T09:53:03;14.50;99.90
13488;DHT22;6816;48.506;9.050;2022-09-17T09:58:50;14.70;99.90
13488;DHT22;6816;48.506;9.050;2022-09-17T10:01:51;14.80;99.90
13488;DHT22;6816;48.506;9.050;2022-09-17T10:04:51;14.90;99.90
13488;DHT22;6816;48.506;9.050;2022-09-17T10:07:52;15.00;99.90
13488;DHT22;6816;48.506;9.050;2022-09-17T10:10:58;15.00;99.90
13488;DHT22;6816;48.506;9.050;2022-09-17T10:14:23;15.10;99.90
13488;DHT22;6816;48.506;9.050;2022-09-17T10:17:25;15.00;99.90
13488;DHT22;6816;48.506;9.050;2022-09-17T10:20:26;15.00;99.90
13488;DHT22;6816;48.506;9.050;2022-09-17T10:23:35;15.00;99.90
13488;DHT22;6816;48.506;9.050;2022-09-17T10:26:37;15.00;99.70
13488;DHT22;6816;48.506;9.050;2022-09-17T10:29:45;15.00;99.90
13488;DHT22;6816;48.506;9.050;2022-09-17T10:33:10;15.00;99.90
13488;DHT22;6816;48.506;9.050;2022-09-17T10:36:14;15.00;99.80
13488;DHT22;6816;48.506;9.050;2022-09-17T10:42:34;15.20;99.40
13488;DHT22;6816;48.506;9.050;2022-09-17T10:45:38;15.30;99.90
13488;DHT22;6816;48.506;9.050;2022-09-17T10:49:33;15.30;99.90
13488;DHT22;6816;48.506;9.050;2022-09-17T11:11:43;15.50;99.20
13488;DHT22;6816;48.506;9.050;2022-09-17T11:21:40;15.50;98.60
13488;DHT22;6816;48.506;9.050;2022-09-17T11:35:51;15.70;99.50
13488;DHT22;6816;48.506;9.050;2022-09-17T11:38:57;15.80;99.90
13488;DHT22;6816;48.506;9.050;2022-09-17T11:42:02;15.90;99.90
13488;DHT22;6816;48.506;9.050;2022-09-17T11:45:18;16.00;99.90
13488;DHT22;6816;48.506;9.050;2022-09-17T11:48:23;16.00;98.90
13488;DHT22;6816;48.506;9.050;2022-09-17T11:51:30;16.10;99.50
13488;DHT22;6816;48.506;9.050;2022-09-17T11:54:39;16.20;99.20
13488;DHT22;6816;48.506;9.050;2022-09-17T11:57:40;16.20;98.50
13488;DHT22;6816;48.506;9.050;2022-09-17T12:00:51;16.30;99.60
13488;DHT22;6816;48.506;9.050;2022-09-17T12:07:47;16.40;98.90
13488;DHT22;6816;48.506;9.050;2022-09-17T12:11:16;16.40;97.70
13488;DHT22;6816;48.506;9.050;2022-09-17T12:14:42;16.40;97.10
13488;DHT22;6816;48.506;9.050;2022-09-17T12:17:50;16.50;97.70
13488;DHT22;6816;48.506;9.050;2022-09-17T12:20:55;16.60;98.90
13488;DHT22;6816;48.506;9.050;2022-09-17T12:27:31;16.80;96.60
13488;DHT22;6816;48.506;9.050;2022-09-17T12:30:49;16.80;98.20
13488;DHT22;6816;48.506;9.050;2022-09-17T12:37:45;16.90;97.10
13488;DHT22;6816;48.506;9.050;2022-09-17T12:41:30;16.90;97.30
13488;DHT22;6816;48.506;9.050;2022-09-17T13:01:03;16.80;95.80
13488;DHT22;6816;48.506;9.050;2022-09-17T13:11:21;16.80;95.50
13488;DHT22;6816;48.506;9.050;2022-09-17T13:17:45;16.90;98.00
13488;DHT22;6816;48.506;9.050;2022-09-17T13:24:01;17.00;95.90
13488;DHT22;6816;48.506;9.050;2022-09-17T13:27:22;17.00;96.40
13488;DHT22;6816;48.506;9.050;2022-09-17T13:33:56;16.60;93.70
13488;DHT22;6816;48.506;9.050;2022-09-17T13:37:01;16.30;95.20
13488;DHT22;6816;48.506;9.050;2022-09-17T13:40:03;15.90;94.90
13488;DHT22;6816;48.506;9.050;2022-09-17T13:43:07;15.60;95.40
13488;DHT22;6816;48.506;9.050;2022-09-17T13:46:10;15.30;95.60
13488;DHT22;6816;48.506;9.050;2022-09-17T13:49:15;15.10;95.90
13488;DHT22;6816;48.506;9.050;2022-09-17T13:52:32;14.90;96.50
13488;DHT22;6816;48.506;9.050;2022-09-17T13:58:42;14.60;97.50
13488;DHT22;6816;48.506;9.050;2022-09-17T14:05:38;14.50;97.70
13488;DHT22;6816;48.506;9.050;2022-09-17T14:11:49;14.50;99.20
13488;DHT22;6816;48.506;9.050;2022-09-17T14:14:50;14.50;99.90
13488;DHT22;6816;48.506;9.050;2022-09-17T14:17:52;14.50;99.90
13488;DHT22;6816;48.506;9.050;2022-09-17T14:21:03;14.60;99.90
13488;DHT22;6816;48.506;9.050;2022-09-17T14:27:57;14.70;99.40
13488;DHT22;6816;48.506;9.050;2022-09-17T14:31:01;14.70;99.30
13488;DHT22;6816;48.506;9.050;2022-09-17T14:34:04;14.80;99.90
13488;DHT22;6816;48.506;9.050;2022-09-17T14:37:10;14.80;99.90
13488;DHT22;6816;48.506;9.050;2022-09-17T14:40:16;14.80;99.70
13488;DHT22;6816;48.506;9.050;2022-09-17T14:43:21;14.80;99.70
13488;DHT22;6816;48.506;9.050;2022-09-17T14:46:29;14.80;99.90
13488;DHT22;6816;48.506;9.050;2022-09-17T14:49:36;14.90;99.90
13488;DHT22;6816;48.506;9.050;2022-09-17T14:52:37;15.00;99.90
13488;DHT22;6816;48.506;9.050;2022-09-17T14:55:39;15.00;99.90
13488;DHT22;6816;48.506;9.050;2022-09-17T14:58:45;15.10;99.90
13488;DHT22;6816;48.506;9.050;2022-09-17T15:01:47;15.20;99.90
13488;DHT22;6816;48.506;9.050;2022-09-17T15:04:48;15.30;99.90
13488;DHT22;6816;48.506;9.050;2022-09-17T15:07:49;15.30;99.90
13488;DHT22;6816;48.506;9.050;2022-09-17T15:11:01;15.30;99.90
13488;DHT22;6816;48.506;9.050;2022-09-17T15:14:06;15.40;99.10
13488;DHT22;6816;48.506;9.050;2022-09-17T15:17:15;15.40;99.70
13488;DHT22;6816;48.506;9.050;2022-09-17T15:20:20;15.40;99.50
13488;DHT22;6816;48.506;9.050;2022-09-17T15:23:25;15.40;99.60
13488;DHT22;6816;48.506;9.050;2022-09-17T15:26:31;15.40;99.00
13488;DHT22;6816;48.506;9.050;2022-09-17T15:29:33;15.40;99.10
13488;DHT22;6816;48.506;9.050;2022-09-17T15:32:34;15.40;99.80
13488;DHT22;6816;48.506;9.050;2022-09-17T15:35:35;15.40;99.50
13488;DHT22;6816;48.506;9.050;2022-09-17T15:38:36;15.40;99.50
13488;DHT22;6816;48.506;9.050;2022-09-17T15:41:38;15.40;99.30
13488;DHT22;6816;48.506;9.050;2022-09-17T15:44:41;15.40;99.20
13488;DHT22;6816;48.506;9.050;2022-09-17T15:47:52;15.40;99.30
13488;DHT22;6816;48.506;9.050;2022-09-17T15:50:55;15.40;98.50
13488;DHT22;6816;48.506;9.050;2022-09-17T15:53:58;15.40;99.00
13488;DHT22;6816;48.506;9.050;2022-09-17T15:56:59;15.30;99.30
13488;DHT22;6816;48.506;9.050;2022-09-17T16:00:06;15.30;99.30
13488;DHT22;6816;48.506;9.050;2022-09-17T16:06:57;15.30;97.90
13488;DHT22;6816;48.506;9.050;2022-09-17T16:09:58;15.30;98.60
13488;DHT22;6816;48.506;9.050;2022-09-17T16:12:58;15.30;99.40
13488;DHT22;6816;48.506;9.050;2022-09-17T16:15:59;15.30;99.30
13488;DHT22;6816;48.506;9.050;2022-09-17T16:19:00;15.20;99.00
13488;DHT22;6816;48.506;9.050;2022-09-17T16:22:01;15.20;99.00
13488;DHT22;6816;48.506;9.050;2022-09-17T16:25:02;15.20;99.10
13488;DHT22;6816;48.506;9.050;2022-09-17T16:28:08;15.10;99.20
13488;DHT22;6816;48.506;9.050;2022-09-17T16:31:12;15.10;98.60
13488;DHT22;6816;48.506;9.050;2022-09-17T16:34:12;15.10;98.80
13488;DHT22;6816;48.506;9.050;2022-09-17T16:37:13;15.10;99.10
13488;DHT22;6816;48.506;9.050;2022-09-17T16:40:14;15.00;99.10
13488;DHT22;6816;48.506;9.050;2022-09-17T16:43:14;15.00;99.00
13488;DHT22;6816;48.506;9.050;2022-09-17T16:46:15;15.00;98.90
13488;DHT22;6816;48.506;9.050;2022-09-17T16:49:16;14.90;98.70
13488;DHT22;6816;48.506;9.050;2022-09-17T16:52:16;14.90;98.70
13488;DHT22;6816;48.506;9.050;2022-09-17T16:55:18;14.80;98.60
13488;DHT22;6816;48.506;9.050;2022-09-17T16:58:19;14.70;98.60
13488;DHT22;6816;48.506;9.050;2022-09-17T17:01:20;14.70;98.60
13488;DHT22;6816;48.506;9.050;2022-09-17T17:04:21;14.60;98.50
13488;DHT22;6816;48.506;9.050;2022-09-17T17:07:22;14.50;98.40
13488;DHT22;6816;48.506;9.050;2022-09-17T17:10:23;14.40;98.30
13488;DHT22;6816;48.506;9.050;2022-09-17T17:13:25;14.30;98.20
13488;DHT22;6816;48.506;9.050;2022-09-17T17:16:27;14.30;98.50
13488;DHT22;6816;48.506;9.050;2022-09-17T17:19:27;14.20;98.60
13488;DHT22;6816;48.506;9.050;2022-09-17T17:22:29;14.20;98.80
13488;DHT22;6816;48.506;9.050;2022-09-17T17:25:30;14.10;98.90
13488;DHT22;6816;48.506;9.050;2022-09-17T17:28:33;14.10;99.00
13488;DHT22;6816;48.506;9.050;2022-09-17T17:31:34;14.10;99.00
13488;DHT22;6816;48.506;9.050;2022-09-17T17:34:35;14.00;99.20
13488;DHT22;6816;48.506;9.050;2022-09-17T17:37:36;14.00;99.40
13488;DHT22;6816;48.506;9.050;2022-09-17T17:40:37;14.00;99.50
13488;DHT22;6816;48.506;9.050;2022-09-17T17:43:38;14.00;99.60
13488;DHT22;6816;48.506;9.050;2022-09-17T17:46:39;13.90;99.60
13488;DHT22;6816;48.506;9.050;2022-09-17T17:49:39;13.90;99.70
13488;DHT22;6816;48.506;9.050;2022-09-17T17:52:40;13.90;99.80
13488;DHT22;6816;48.506;9.050;2022-09-17T17:55:57;13.90;99.90
13488;DHT22;6816;48.506;9.050;2022-09-17T17:58:58;13.90;99.20
13488;DHT22;6816;48.506;9.050;2022-09-17T18:01:59;13.90;99.90
13488;DHT22;6816;48.506;9.050;2022-09-17T18:05:00;14.00;99.90
13488;DHT22;6816;48.506;9.050;2022-09-17T18:08:01;13.90;99.90
13488;DHT22;6816;48.506;9.050;2022-09-17T18:11:03;13.90;99.90
13488;DHT22;6816;48.506;9.050;2022-09-17T18:14:04;13.90;99.90
13488;DHT22;6816;48.506;9.050;2022-09-17T18:17:04;13.90;99.90
13488;DHT22;6816;48.506;9.050;2022-09-17T18:20:05;13.90;99.90
13488;DHT22;6816;48.506;9.050;2022-09-17T18:23:06;13.80;99.90
13488;DHT22;6816;48.506;9.050;2022-09-17T18:26:12;13.90;99.90
13488;DHT22;6816;48.506;9.050;2022-09-17T18:29:12;13.90;99.90
13488;DHT22;6816;48.506;9.050;2022-09-17T18:32:13;13.80;99.90
13488;DHT22;6816;48.506;9.050;2022-09-17T18:35:14;13.80;99.90
13488;DHT22;6816;48.506;9.050;2022-09-17T18:38:19;13.80;99.90
13488;DHT22;6816;48.506;9.050;2022-09-17T18:41:19;13.80;99.90
13488;DHT22;6816;48.506;9.050;2022-09-17T18:44:20;13.80;99.90
13488;DHT22;6816;48.506;9.050;2022-09-17T18:47:21;13.80;99.90
13488;DHT22;6816;48.506;9.050;2022-09-17T18:50:22;13.70;99.90
13488;DHT22;6816;48.506;9.050;2022-09-17T18:53:24;13.70;99.90
13488;DHT22;6816;48.506;9.050;2022-09-17T18:56:27;13.70;99.90
13488;DHT22;6816;48.506;9.050;2022-09-17T18:59:28;13.70;99.90
13488;DHT22;6816;48.506;9.050;2022-09-17T19:02:29;13.70;99.90
13488;DHT22;6816;48.506;9.050;2022-09-17T19:05:29;13.70;99.90
13488;DHT22;6816;48.506;9.050;2022-09-17T19:08:30;13.70;99.90
13488;DHT22;6816;48.506;9.050;2022-09-17T19:11:31;13.60;99.90
13488;DHT22;6816;48.506;9.050;2022-09-17T19:14:33;13.60;99.90
13488;DHT22;6816;48.506;9.050;2022-09-17T19:17:34;13.60;99.80
13488;DHT22;6816;48.506;9.050;2022-09-17T19:20:35;13.60;99.70
13488;DHT22;6816;48.506;9.050;2022-09-17T19:23:45;13.50;99.80
13488;DHT22;6816;48.506;9.050;2022-09-17T19:26:46;13.50;99.60
13488;DHT22;6816;48.506;9.050;2022-09-17T19:29:48;13.50;99.90
13488;DHT22;6816;48.506;9.050;2022-09-17T19:32:49;13.50;99.90
13488;DHT22;6816;48.506;9.050;2022-09-17T19:35:51;13.50;99.90
13488;DHT22;6816;48.506;9.050;2022-09-17T19:38:54;13.50;99.90
13488;DHT22;6816;48.506;9.050;2022-09-17T19:41:55;13.50;99.90
13488;DHT22;6816;48.506;9.050;2022-09-17T19:44:56;13.50;99.90
13488;DHT22;6816;48.506;9.050;2022-09-17T19:47:56;13.50;99.90
13488;DHT22;6816;48.506;9.050;2022-09-17T19:51:01;13.50;99.90
13488;DHT22;6816;48.506;9.050;2022-09-17T19:54:02;13.50;99.90
13488;DHT22;6816;48.506;9.050;2022-09-17T19:57:06;13.40;99.90
13488;DHT22;6816;48.506;9.050;2022-09-17T20:00:07;13.40;99.00
13488;DHT22;6816;48.506;9.050;2022-09-17T20:03:12;13.20;97.50
13488;DHT22;6816;48.506;9.050;2022-09-17T20:06:18;12.90;97.20
13488;DHT22;6816;48.506;9.050;2022-09-17T20:09:22;12.70;97.10
13488;DHT22;6816;48.506;9.050;2022-09-17T20:12:22;12.40;97.40
13488;DHT22;6816;48.506;9.050;2022-09-17T20:15:27;12.20;98.10
13488;DHT22;6816;48.506;9.050;2022-09-17T20:18:31;11.80;98.60
13488;DHT22;6816;48.506;9.050;2022-09-17T20:21:33;11.80;99.10
13488;DHT22;6816;48.506;9.050;2022-09-17T20:24:33;11.70;99.30
13488;DHT22;6816;48.506;9.050;2022-09-17T20:27:34;11.80;99.70
13488;DHT22;6816;48.506;9.050;2022-09-17T20:30:34;11.50;99.80
13488;DHT22;6816;48.506;9.050;2022-09-17T20:33:35;11.40;99.90
13488;DHT22;6816;48.506;9.050;2022-09-17T20:36:36;11.40;99.90
13488;DHT22;6816;48.506;9.050;2022-09-17T20:39:37;11.30;99.90
13488;DHT22;6816;48.506;9.050;2022-09-17T20:42:41;11.20;99.90
13488;DHT22;6816;48.506;9.050;2022-09-17T20:45:53;11.10;99.90
13488;DHT22;6816;48.506;9.050;2022-09-17T20:48:57;11.20;99.90
13488;DHT22;6816;48.506;9.050;2022-09-17T20:51:58;11.10;99.90
13488;DHT22;6816;48.506;9.050;2022-09-17T20:55:05;11.00;99.90
13488;DHT22;6816;48.506;9.050;2022-09-17T20:58:05;11.00;99.90
13488;DHT22;6816;48.506;9.050;2022-09-17T21:01:09;11.10;99.90
13488;DHT22;6816;48.506;9.050;2022-09-17T21:04:16;11.00;99.90
13488;DHT22;6816;48.506;9.050;2022-09-17T21:07:19;10.90;99.90
13488;DHT22;6816;48.506;9.050;2022-09-17T21:10:19;10.90;99.90
13488;DHT22;6816;48.506;9.050;2022-09-17T21:13:20;10.90;99.90
13488;DHT22;6816;48.506;9.050;2022-09-17T21:16:21;10.90;99.90
13488;DHT22;6816;48.506;9.050;2022-09-17T21:19:22;11.00;99.90
13488;DHT22;6816;48.506;9.050;2022-09-17T21:22:24;10.90;99.90
13488;DHT22;6816;48.506;9.050;2022-09-17T21:25:25;10.90;99.90
13488;DHT22;6816;48.506;9.050;2022-09-17T21:28:25;11.00;99.90
13488;DHT22;6816;48.506;9.050;2022-09-17T21:31:31;10.90;99.90
13488;DHT22;6816;48.506;9.050;2022-09-17T21:34:32;11.00;99.90
13488;DHT22;6816;48.506;9.050;2022-09-17T21:37:33;11.00;99.90
13488;DHT22;6816;48.506;9.050;2022-09-17T21:40:34;11.00;99.90
13488;DHT22;6816;48.506;9.050;2022-09-17T21:43:35;11.00;99.90
13488;DHT22;6816;48.506;9.050;2022-09-17T21:46:37;11.00;99.90
13488;DHT22;6816;48.506;9.050;2022-09-17T21:49:38;11.20;99.90
13488;DHT22;6816;48.506;9.050;2022-09-17T21:52:39;11.10;99.90
13488;DHT22;6816;48.506;9.050;2022-09-17T21:55:40;11.10;99.90
13488;DHT22;6816;48.506;9.050;2022-09-17T21:58:42;11.20;99.90
13488;DHT22;6816;48.506;9.050;2022-09-17T22:01:45;11.30;99.90
13488;DHT22;6816;48.506;9.050;2022-09-17T22:04:46;11.20;99.90
13488;DHT22;6816;48.506;9.050;2022-09-17T22:07:47;11.20;99.90
13488;DHT22;6816;48.506;9.050;2022-09-17T22:10:47;11.20;99.90
13488;DHT22;6816;48.506;9.050;2022-09-17T22:13:53;11.10;99.90
13488;DHT22;6816;48.506;9.050;2022-09-17T22:16:55;11.10;99.90